CheckWX is a tool to help pilots better visualize weather data.  It is not intended as a substitute for an official pre-flight weather briefing.

08:44:05 UTC

KICT METAR
Wichita Dwight D Eisenhower National Airport
Wichita, Kansas, USA
Current

51 mins ago

KICT 240753Z 09010KT 6SM -RA BR OVC006 08/07 A2962 RMK AO2 RAB06 SLP030 P0004 T00830067
Observed
Feb-24 @ 07:53 UTC
Wind
  • 090° at 10 KTS
Visibility
6 SM
Flight Rules
IFR
Conditions
Light Rain, Mist
Cloud Levels
  • Overcast at 600' AGL
Temperature
C / 46°F
Dewpoint
C / 45°F
Humidity
93%
Altimeter
29.62" Hg
Pressure
1003.02 hPa
Current Rain
0.04"
Previous

2 hours ago

KICT 240653Z 08015KT 10SM OVC006 08/07 A2963 RMK AO2 RAE36 CIG 005V010 SLP035 P0001 T00830067
Observed
Feb-24 @ 06:53 UTC
Wind
  • 080° at 15 KTS
Visibility
10 SM
Flight Rules
IFR
Cloud Levels
  • Overcast at 600' AGL
Temperature
C / 46°F
Dewpoint
C / 45°F
Humidity
93%
Altimeter
29.63" Hg
Pressure
1003.42 hPa
Current Rain
0.01"
Previous

3 hours ago

KICT 240553Z 08016G24KT 8SM -RA OVC006 08/07 A2966 RMK AO2 SLP046 P0012 60085 T00780067 10083 20072 400890072 58030
Observed
Feb-24 @ 05:53 UTC
Wind
  • 080° at 16 KTS
  • Gusting to 24 KTS
Visibility
8 SM
Flight Rules
IFR
Conditions
Light Rain
Cloud Levels
  • Overcast at 600' AGL
Temperature
C / 46°F
Dewpoint
C / 45°F
Humidity
93%
Altimeter
29.66" Hg
Pressure
1004.42 hPa
Current Rain
0.12"